createdAt,value
2018-12-22T00:00:26.057Z,8.20
2018-12-22T00:02:53.573Z,8.20
2018-12-22T00:05:21.067Z,8.10
2018-12-22T00:07:48.714Z,8.10
2018-12-22T00:10:16.585Z,8.10
2018-12-22T00:12:44.063Z,8.10
2018-12-22T00:15:11.571Z,8.10
2018-12-22T00:17:39.197Z,8.10
2018-12-22T00:20:07.094Z,8.10
2018-12-22T00:22:35.857Z,8.00
2018-12-22T00:25:03.788Z,8.00
2018-12-22T00:27:31.635Z,8.00
2018-12-22T00:29:59.234Z,8.00
2018-12-22T00:32:26.789Z,8.00
2018-12-22T00:34:54.297Z,8.00
2018-12-22T00:37:21.817Z,8.00
2018-12-22T00:39:49.473Z,8.00
2018-12-22T00:42:17.362Z,8.00
2018-12-22T00:44:44.936Z,8.00
2018-12-22T00:47:12.883Z,8.00
2018-12-22T00:49:40.439Z,8.00
2018-12-22T00:52:08.358Z,8.00
2018-12-22T00:54:35.838Z,8.00
2018-12-22T00:57:03.529Z,8.00
2018-12-22T00:59:30.994Z,8.00
2018-12-22T01:01:58.548Z,8.00
2018-12-22T01:04:26.097Z,8.00
2018-12-22T01:06:53.649Z,8.00
2018-12-22T01:09:21.248Z,8.00
2018-12-22T01:11:48.826Z,7.90
2018-12-22T01:14:16.437Z,7.90
2018-12-22T01:16:44.864Z,7.90
2018-12-22T01:19:12.475Z,7.90
2018-12-22T01:21:39.984Z,7.90
2018-12-22T01:24:07.622Z,7.90
2018-12-22T01:26:35.234Z,7.90
2018-12-22T01:29:03.123Z,7.90
2018-12-22T01:31:33.514Z,7.90
2018-12-22T01:34:00.973Z,7.90
2018-12-22T01:36:28.502Z,7.90
2018-12-22T01:38:55.998Z,7.90
2018-12-22T01:41:23.454Z,7.90
2018-12-22T01:43:50.947Z,7.90
2018-12-22T01:46:18.490Z,7.90
2018-12-22T01:48:46.141Z,7.90
2018-12-22T01:51:13.825Z,7.80
2018-12-22T01:53:41.305Z,7.80
2018-12-22T01:56:08.763Z,7.80
2018-12-22T01:58:36.262Z,7.80
2018-12-22T02:01:03.997Z,7.80
2018-12-22T02:03:31.489Z,7.80
2018-12-22T02:05:58.953Z,7.80
2018-12-22T02:08:26.832Z,7.80
2018-12-22T02:10:54.387Z,7.70
2018-12-22T02:13:22.054Z,7.70
2018-12-22T02:15:49.533Z,7.70
2018-12-22T02:18:17.025Z,7.70
2018-12-22T02:20:44.529Z,7.70
2018-12-22T02:23:12.176Z,7.70
2018-12-22T02:25:39.733Z,7.70
2018-12-22T02:28:07.415Z,7.70
2018-12-22T02:30:34.933Z,7.70
2018-12-22T02:33:02.852Z,7.70
2018-12-22T02:35:30.433Z,7.60
2018-12-22T02:37:57.910Z,7.60
2018-12-22T02:40:25.826Z,7.60
2018-12-22T02:42:53.383Z,7.60
2018-12-22T02:45:20.950Z,7.50
2018-12-22T02:47:48.481Z,7.50
2018-12-22T02:50:16.226Z,7.50
2018-12-22T02:52:43.987Z,7.40
2018-12-22T02:55:11.542Z,7.40
2018-12-22T02:57:39.083Z,7.40
2018-12-22T03:00:09.183Z,7.30
2018-12-22T03:02:36.677Z,7.30
2018-12-22T03:05:04.714Z,7.30
2018-12-22T03:07:33.298Z,7.30
2018-12-22T03:10:00.881Z,7.30
2018-12-22T03:12:28.368Z,7.20
2018-12-22T03:14:55.914Z,7.20
2018-12-22T03:17:23.402Z,7.20
2018-12-22T03:19:50.935Z,7.20
2018-12-22T03:22:18.469Z,7.10
2018-12-22T03:24:46.450Z,7.10
2018-12-22T03:27:14.223Z,7.10
2018-12-22T03:29:41.822Z,7.10
2018-12-22T03:32:09.563Z,7.10
2018-12-22T03:34:37.201Z,7.10
2018-12-22T03:37:05.824Z,7.10
2018-12-22T03:39:33.474Z,7.00
2018-12-22T03:42:01.146Z,7.00
2018-12-22T03:44:28.766Z,7.00
2018-12-22T03:46:56.248Z,7.00
2018-12-22T03:49:23.706Z,7.00
2018-12-22T03:51:51.341Z,6.90
2018-12-22T03:54:18.810Z,6.90
2018-12-22T03:56:46.275Z,6.90
2018-12-22T03:59:13.721Z,6.90
2018-12-22T04:01:41.165Z,6.90
2018-12-22T04:04:08.661Z,6.90
2018-12-22T04:06:36.190Z,6.80
2018-12-22T04:09:05.743Z,6.80
2018-12-22T04:11:33.214Z,6.80
2018-12-22T04:14:00.953Z,6.80
2018-12-22T04:16:28.467Z,6.80
2018-12-22T04:18:55.925Z,6.70
2018-12-22T04:21:23.422Z,6.70
2018-12-22T04:23:50.949Z,6.70
2018-12-22T04:26:18.508Z,6.70
2018-12-22T04:28:46.030Z,6.70
2018-12-22T04:31:13.510Z,6.60
2018-12-22T04:33:40.994Z,6.60
2018-12-22T04:36:08.646Z,6.60
2018-12-22T04:38:36.106Z,6.60
2018-12-22T04:41:03.746Z,6.60
2018-12-22T04:43:31.238Z,6.60
2018-12-22T04:45:58.743Z,6.50
2018-12-22T04:48:26.204Z,6.50
2018-12-22T04:50:53.684Z,6.50
2018-12-22T04:53:21.295Z,6.50
2018-12-22T04:55:49.187Z,6.50
2018-12-22T04:58:16.773Z,6.50
2018-12-22T05:00:44.314Z,6.40
2018-12-22T05:03:11.942Z,6.40
2018-12-22T05:05:39.446Z,6.40
2018-12-22T05:08:07.062Z,6.40
2018-12-22T05:10:34.783Z,6.40
2018-12-22T05:13:02.285Z,6.40
2018-12-22T05:15:29.761Z,6.40
2018-12-22T05:17:57.238Z,6.40
2018-12-22T05:20:24.725Z,6.40
2018-12-22T05:22:53.377Z,6.40
2018-12-22T05:25:21.305Z,6.40
2018-12-22T05:27:49.170Z,6.40
2018-12-22T05:30:17.022Z,6.40
2018-12-22T05:32:45.604Z,6.40
2018-12-22T05:35:14.335Z,6.40
2018-12-22T05:37:41.943Z,6.40
2018-12-22T05:40:09.425Z,6.40
2018-12-22T05:42:37.041Z,6.40
2018-12-22T05:45:05.148Z,6.40
2018-12-22T05:47:32.808Z,6.40
2018-12-22T05:50:00.325Z,6.40
2018-12-22T05:52:27.796Z,6.40
2018-12-22T05:54:55.330Z,6.40
2018-12-22T05:57:22.995Z,6.50
2018-12-22T05:59:50.687Z,6.50
2018-12-22T06:02:18.402Z,6.50
2018-12-22T06:04:45.877Z,6.50
2018-12-22T06:07:13.441Z,6.50
2018-12-22T06:09:40.961Z,6.50
2018-12-22T06:12:08.598Z,6.50
2018-12-22T06:14:36.044Z,6.50
2018-12-22T06:17:03.567Z,6.50
2018-12-22T06:19:31.281Z,6.50
2018-12-22T06:21:58.871Z,6.50
2018-12-22T06:24:26.513Z,6.50
2018-12-22T06:26:54.019Z,6.50
2018-12-22T06:29:21.584Z,6.50
2018-12-22T06:31:49.589Z,6.50
2018-12-22T06:34:17.133Z,6.50
2018-12-22T06:36:44.809Z,6.50
2018-12-22T06:39:12.406Z,6.50
2018-12-22T06:41:40.078Z,6.50
2018-12-22T06:44:07.605Z,6.50
2018-12-22T06:46:35.298Z,6.50
2018-12-22T06:49:02.851Z,6.50
2018-12-22T06:51:30.431Z,6.50
2018-12-22T06:53:57.956Z,6.50
2018-12-22T06:56:25.478Z,6.60
2018-12-22T06:58:53.043Z,6.60
2018-12-22T07:01:20.517Z,6.60
2018-12-22T07:03:48.177Z,6.60
2018-12-22T07:06:15.920Z,6.60
2018-12-22T07:08:43.937Z,6.60
2018-12-22T07:11:11.669Z,6.60
2018-12-22T07:13:39.290Z,6.60
2018-12-22T07:16:07.470Z,6.60
2018-12-22T07:18:35.222Z,6.60
2018-12-22T07:21:02.770Z,6.60
2018-12-22T07:23:30.347Z,6.70
2018-12-22T07:25:57.859Z,6.60
2018-12-22T07:28:25.329Z,6.70
2018-12-22T07:30:54.614Z,6.70
2018-12-22T07:33:22.482Z,6.70
2018-12-22T07:35:50.173Z,6.70
2018-12-22T07:38:17.826Z,6.70
2018-12-22T07:40:45.497Z,6.70
2018-12-22T07:43:14.119Z,6.70
2018-12-22T07:45:41.648Z,6.70
2018-12-22T07:48:09.130Z,6.70
2018-12-22T07:50:37.025Z,6.70
2018-12-22T07:53:04.679Z,6.70
2018-12-22T07:55:32.185Z,6.80
2018-12-22T07:57:59.845Z,6.80
2018-12-22T08:00:34.857Z,6.80
2018-12-22T08:02:57.071Z,6.80
2018-12-22T08:05:24.582Z,6.80
2018-12-22T08:07:52.199Z,6.80
2018-12-22T08:10:19.913Z,6.80
2018-12-22T08:12:47.626Z,6.80
2018-12-22T08:15:15.233Z,6.90
2018-12-22T08:17:42.965Z,6.90
2018-12-22T08:20:10.527Z,6.90
2018-12-22T08:22:37.996Z,6.90
2018-12-22T08:25:05.756Z,6.90
2018-12-22T08:27:34.041Z,7.00
2018-12-22T08:30:02.163Z,7.00
2018-12-22T08:32:29.934Z,7.00
2018-12-22T08:34:57.617Z,7.00
2018-12-22T08:37:25.441Z,7.00
2018-12-22T08:39:53.417Z,7.00
2018-12-22T08:42:21.157Z,7.10
2018-12-22T08:44:48.778Z,7.10
2018-12-22T08:47:16.690Z,7.10
2018-12-22T08:49:44.341Z,7.10
2018-12-22T08:52:12.045Z,7.10
2018-12-22T08:54:39.545Z,7.20
2018-12-22T08:57:07.160Z,7.20
2018-12-22T08:59:34.714Z,7.20
2018-12-22T09:02:02.416Z,7.20
2018-12-22T09:04:29.923Z,7.20
2018-12-22T09:06:57.802Z,7.30
2018-12-22T09:09:25.281Z,7.30
2018-12-22T09:11:52.908Z,7.30
2018-12-22T09:14:20.618Z,7.30
2018-12-22T09:16:48.209Z,7.40
2018-12-22T09:19:15.686Z,7.40
2018-12-22T09:21:43.373Z,7.40
2018-12-22T09:24:10.886Z,7.40
2018-12-22T09:26:38.345Z,7.40
2018-12-22T09:29:05.969Z,7.50
2018-12-22T09:31:33.508Z,7.50
2018-12-22T09:34:00.970Z,7.50
2018-12-22T09:36:28.486Z,7.50
2018-12-22T09:38:56.465Z,7.60
2018-12-22T09:41:24.078Z,7.60
2018-12-22T09:43:51.553Z,7.60
2018-12-22T09:46:19.707Z,7.60
2018-12-22T09:48:47.231Z,7.70
2018-12-22T09:51:14.714Z,7.70
2018-12-22T09:53:42.225Z,7.70
2018-12-22T09:56:09.725Z,7.80
2018-12-22T09:58:37.267Z,7.80
2018-12-22T10:01:09.316Z,7.80
2018-12-22T10:03:35.047Z,7.90
2018-12-22T10:06:02.564Z,7.90
2018-12-22T10:08:30.048Z,7.90
2018-12-22T10:10:57.780Z,8.00
2018-12-22T10:13:25.326Z,8.00
2018-12-22T10:15:52.806Z,8.00
2018-12-22T10:18:20.613Z,8.10
2018-12-22T10:20:48.166Z,8.10
2018-12-22T10:23:15.920Z,8.10
2018-12-22T10:25:43.576Z,8.20
2018-12-22T10:28:11.196Z,8.20
2018-12-22T10:30:38.713Z,8.20
2018-12-22T10:33:07.540Z,8.20
2018-12-22T10:35:35.083Z,8.20
2018-12-22T10:38:02.908Z,8.30
2018-12-22T10:40:30.649Z,8.30
2018-12-22T10:42:58.215Z,8.30
2018-12-22T10:45:25.742Z,8.40
2018-12-22T10:47:53.301Z,8.40
2018-12-22T10:50:20.821Z,8.50
2018-12-22T10:52:48.840Z,8.50
2018-12-22T10:55:16.649Z,8.50
2018-12-22T10:57:44.238Z,8.60
2018-12-22T11:00:14.304Z,8.70
2018-12-22T11:02:42.191Z,8.70
2018-12-22T11:05:11.587Z,8.60
2018-12-22T11:07:39.846Z,8.60
2018-12-22T11:10:12.317Z,8.60
2018-12-22T11:12:39.957Z,8.60
2018-12-22T11:15:07.521Z,8.60
2018-12-22T11:17:36.609Z,8.60
2018-12-22T11:20:04.625Z,8.60
2018-12-22T11:22:32.325Z,8.60
2018-12-22T11:25:01.115Z,8.60
2018-12-22T11:27:28.684Z,8.60
2018-12-22T11:29:56.212Z,8.60
2018-12-22T11:32:23.732Z,8.60
2018-12-22T11:34:51.251Z,8.60
2018-12-22T11:37:18.781Z,8.60
2018-12-22T11:39:46.268Z,8.60
2018-12-22T11:42:14.893Z,8.60
2018-12-22T11:44:42.677Z,8.60
2018-12-22T11:47:19.495Z,8.60
2018-12-22T11:49:47.069Z,8.60
2018-12-22T11:52:14.908Z,8.60
2018-12-22T11:54:42.480Z,8.60
2018-12-22T11:57:10.158Z,8.60
2018-12-22T11:59:38.146Z,8.60
2018-12-22T12:02:10.035Z,8.60
2018-12-22T12:04:35.325Z,8.60
2018-12-22T12:07:02.962Z,8.70
2018-12-22T12:09:30.522Z,8.70
2018-12-22T12:11:58.256Z,8.70
2018-12-22T12:14:26.217Z,8.70
2018-12-22T12:17:54.771Z,8.70
2018-12-22T12:20:22.369Z,8.70
2018-12-22T12:22:49.882Z,8.80
2018-12-22T12:25:17.455Z,8.70
2018-12-22T12:27:44.947Z,8.80
2018-12-22T12:30:12.404Z,8.80
2018-12-22T12:32:40.000Z,8.80
2018-12-22T12:35:07.531Z,8.80
2018-12-22T12:37:35.048Z,8.80
2018-12-22T12:40:02.941Z,8.80
2018-12-22T12:42:30.452Z,8.80
2018-12-22T12:44:57.936Z,8.90
2018-12-22T12:47:25.587Z,8.90
2018-12-22T12:49:53.084Z,8.90
2018-12-22T12:52:20.606Z,8.90
2018-12-22T12:54:48.450Z,8.90
2018-12-22T12:57:15.910Z,8.90
2018-12-22T12:59:43.439Z,8.90
2018-12-22T13:02:10.943Z,8.80
2018-12-22T13:04:38.407Z,8.80
2018-12-22T13:07:05.957Z,8.80
2018-12-22T13:09:33.537Z,8.70
2018-12-22T13:12:07.741Z,8.70
2018-12-22T13:14:35.510Z,8.70
2018-12-22T13:17:03.321Z,8.70
2018-12-22T13:19:31.001Z,8.60
2018-12-22T13:21:58.561Z,8.60
2018-12-22T13:24:26.620Z,8.60
2018-12-22T13:26:54.250Z,8.60
2018-12-22T13:29:21.806Z,8.60
2018-12-22T13:31:49.281Z,8.60
2018-12-22T13:34:16.890Z,8.60
2018-12-22T13:36:44.423Z,8.60
2018-12-22T13:39:18.539Z,8.60
2018-12-22T13:41:46.195Z,8.60
2018-12-22T13:44:13.689Z,8.60
2018-12-22T13:46:41.562Z,8.70
2018-12-22T13:49:09.331Z,8.70
2018-12-22T13:51:38.432Z,8.70
2018-12-22T13:54:06.661Z,8.60
2018-12-22T13:56:34.338Z,8.70
2018-12-22T13:59:01.897Z,8.70
2018-12-22T14:01:31.890Z,8.70
2018-12-22T14:03:59.749Z,8.70
2018-12-22T14:06:31.804Z,8.70
2018-12-22T14:08:59.333Z,8.70
2018-12-22T14:11:26.857Z,8.70
2018-12-22T14:13:56.562Z,8.70
2018-12-22T14:17:33.379Z,8.70
2018-12-22T14:20:06.118Z,8.70
2018-12-22T14:22:34.210Z,8.70
2018-12-22T14:25:02.833Z,8.70
2018-12-22T14:27:31.427Z,8.80
2018-12-22T14:29:59.189Z,8.80
2018-12-22T14:32:27.271Z,8.80
2018-12-22T14:34:59.369Z,8.90
2018-12-22T14:37:26.916Z,8.80
2018-12-22T14:39:54.479Z,8.80
2018-12-22T14:42:22.084Z,8.80
2018-12-22T14:44:49.550Z,8.80
2018-12-22T14:47:17.241Z,8.80
2018-12-22T14:49:44.699Z,8.80
2018-12-22T14:52:12.186Z,8.80
2018-12-22T14:54:40.014Z,8.80
2018-12-22T14:57:07.526Z,8.80
2018-12-22T14:59:35.640Z,8.80
2018-12-22T15:02:03.296Z,8.80
2018-12-22T15:04:30.807Z,8.80
2018-12-22T15:06:58.428Z,8.80
2018-12-22T15:09:25.898Z,8.80
2018-12-22T15:11:53.425Z,8.80
2018-12-22T15:14:20.903Z,8.80
2018-12-22T15:16:48.629Z,8.80
2018-12-22T15:19:16.529Z,8.70
2018-12-22T15:21:44.108Z,8.80
2018-12-22T15:24:11.877Z,8.70
2018-12-22T15:26:39.384Z,8.70
2018-12-22T15:29:06.907Z,8.70
2018-12-22T15:31:34.440Z,8.70
2018-12-22T15:34:01.982Z,8.70
2018-12-22T15:36:29.468Z,8.60
2018-12-22T15:38:57.630Z,8.60
2018-12-22T15:41:25.133Z,8.60
2018-12-22T15:43:53.018Z,8.60
2018-12-22T15:46:20.670Z,8.60
2018-12-22T15:48:48.434Z,8.60
2018-12-22T15:51:16.519Z,8.50
2018-12-22T15:53:44.058Z,8.50
2018-12-22T15:56:11.589Z,8.50
2018-12-22T15:58:39.701Z,8.50
2018-12-22T16:01:07.291Z,8.50
2018-12-22T16:03:34.839Z,8.50
2018-12-22T16:06:02.612Z,8.50
2018-12-22T16:08:30.106Z,8.50
2018-12-22T16:10:57.673Z,8.50
2018-12-22T16:13:25.322Z,8.50
2018-12-22T16:15:53.571Z,8.50
2018-12-22T16:18:21.163Z,8.50
2018-12-22T16:20:48.665Z,8.50
2018-12-22T16:23:16.401Z,8.50
2018-12-22T16:25:43.862Z,8.50
2018-12-22T16:28:17.209Z,8.50
2018-12-22T16:30:48.638Z,8.50
2018-12-22T16:33:16.280Z,8.50
2018-12-22T16:35:44.029Z,8.50
2018-12-22T16:38:11.502Z,8.50
2018-12-22T16:40:38.985Z,8.50
2018-12-22T16:43:09.567Z,8.50
2018-12-22T16:45:40.201Z,8.50
2018-12-22T16:48:07.692Z,8.50
2018-12-22T16:50:37.182Z,8.40
2018-12-22T16:53:04.898Z,8.40
2018-12-22T16:55:32.382Z,8.40
2018-12-22T16:58:04.313Z,8.40
2018-12-22T17:00:35.709Z,8.40
2018-12-22T17:03:10.544Z,8.40
2018-12-22T17:05:36.643Z,8.40
2018-12-22T17:08:05.797Z,8.40
2018-12-22T17:10:40.085Z,8.40
2018-12-22T17:13:08.640Z,8.40
2018-12-22T17:15:38.367Z,8.40
2018-12-22T17:18:06.532Z,8.40
2018-12-22T17:20:34.329Z,8.40
2018-12-22T17:23:13.247Z,8.40
2018-12-22T17:25:47.165Z,8.30
2018-12-22T17:28:14.761Z,8.30
2018-12-22T17:30:42.278Z,8.30
2018-12-22T17:33:09.787Z,8.30
2018-12-22T17:35:38.141Z,8.30
2018-12-22T17:38:05.714Z,8.30
2018-12-22T17:40:33.197Z,8.20
2018-12-22T17:43:00.685Z,8.20
2018-12-22T17:45:28.393Z,8.20
2018-12-22T17:47:55.934Z,8.20
2018-12-22T17:50:23.558Z,8.10
2018-12-22T17:52:51.286Z,8.10
2018-12-22T17:55:18.825Z,8.10
2018-12-22T17:57:46.293Z,8.10
2018-12-22T18:00:14.243Z,8.10
2018-12-22T18:02:43.613Z,8.00
2018-12-22T18:05:11.269Z,8.00
2018-12-22T18:07:39.151Z,8.00
2018-12-22T18:10:08.157Z,8.00
2018-12-22T18:12:38.763Z,8.00
2018-12-22T18:15:10.713Z,7.90
2018-12-22T18:17:38.370Z,7.90
2018-12-22T18:20:07.601Z,8.00
2018-12-22T18:22:35.137Z,7.90
2018-12-22T18:25:02.946Z,7.90
2018-12-22T18:27:30.430Z,7.90
2018-12-22T18:29:58.204Z,7.90
2018-12-22T18:32:25.870Z,7.80
2018-12-22T18:34:53.349Z,7.80
2018-12-22T18:37:21.578Z,7.80
2018-12-22T18:39:49.261Z,7.70
2018-12-22T18:42:17.027Z,7.70
2018-12-22T18:44:44.528Z,7.60
2018-12-22T18:47:11.997Z,7.60
2018-12-22T18:49:39.505Z,7.50
2018-12-22T18:52:07.121Z,7.50
2018-12-22T18:54:35.161Z,7.50
2018-12-22T18:57:03.002Z,7.40
2018-12-22T18:59:30.718Z,7.40
2018-12-22T19:01:58.387Z,7.40
2018-12-22T19:04:26.033Z,7.40
2018-12-22T19:06:53.744Z,7.30
2018-12-22T19:09:25.473Z,7.30
2018-12-22T19:11:53.549Z,7.30
2018-12-22T19:14:21.321Z,7.30
2018-12-22T19:16:48.836Z,7.20
2018-12-22T19:19:16.377Z,7.20
2018-12-22T19:21:43.937Z,7.10
2018-12-22T19:24:11.441Z,7.20
2018-12-22T19:26:38.957Z,7.10
2018-12-22T19:29:06.468Z,7.10
2018-12-22T19:31:41.582Z,7.10
2018-12-22T19:34:03.738Z,7.00
2018-12-22T19:36:31.262Z,7.00
2018-12-22T19:38:58.890Z,7.00
2018-12-22T19:41:26.383Z,6.90
2018-12-22T19:43:54.301Z,6.90
2018-12-22T19:46:21.823Z,6.90
2018-12-22T19:48:49.453Z,6.90
2018-12-22T19:51:17.101Z,6.80
2018-12-22T19:53:44.627Z,6.80
2018-12-22T19:56:12.194Z,6.80
2018-12-22T19:58:39.714Z,6.70
2018-12-22T20:01:07.291Z,6.70
2018-12-22T20:03:35.573Z,6.70
2018-12-22T20:06:03.213Z,6.70
2018-12-22T20:08:31.940Z,6.60
2018-12-22T20:10:59.458Z,6.60
2018-12-22T20:13:27.302Z,6.60
2018-12-22T20:15:54.833Z,6.60
2018-12-22T20:18:22.367Z,6.60
2018-12-22T20:20:49.820Z,6.60
2018-12-22T20:23:17.334Z,6.60
2018-12-22T20:25:44.906Z,6.60
2018-12-22T20:28:12.404Z,6.50
2018-12-22T20:30:40.114Z,6.50
2018-12-22T20:33:07.817Z,6.50
2018-12-22T20:35:35.892Z,6.50
2018-12-22T20:38:03.483Z,6.50
2018-12-22T20:40:31.387Z,6.50
2018-12-22T20:42:58.874Z,6.50
2018-12-22T20:45:26.364Z,6.50
2018-12-22T20:47:54.089Z,6.50
2018-12-22T20:50:21.634Z,6.50
2018-12-22T20:52:49.223Z,6.50
2018-12-22T20:55:16.854Z,6.50
2018-12-22T20:57:44.547Z,6.50
2018-12-22T21:00:12.462Z,6.50
2018-12-22T21:02:40.134Z,6.50
2018-12-22T21:05:07.707Z,6.50
2018-12-22T21:07:35.395Z,6.50
2018-12-22T21:10:03.304Z,6.50
2018-12-22T21:12:30.871Z,6.50
2018-12-22T21:14:58.472Z,6.50
2018-12-22T21:17:26.025Z,6.50
2018-12-22T21:19:53.878Z,6.50
2018-12-22T21:22:21.366Z,6.50
2018-12-22T21:24:49.013Z,6.50
2018-12-22T21:27:16.555Z,6.50
2018-12-22T21:29:44.041Z,6.60
2018-12-22T21:32:11.514Z,6.60
2018-12-22T21:34:39.194Z,6.60
2018-12-22T21:37:06.665Z,6.60
2018-12-22T21:39:34.372Z,6.60
2018-12-22T21:42:01.977Z,6.60
2018-12-22T21:44:29.994Z,6.60
2018-12-22T21:46:57.670Z,6.60
2018-12-22T21:49:25.178Z,6.60
2018-12-22T21:51:53.161Z,6.60
2018-12-22T21:54:20.844Z,6.60
2018-12-22T21:56:48.666Z,6.70
2018-12-22T21:59:16.258Z,6.70
2018-12-22T22:01:44.015Z,6.70
2018-12-22T22:04:11.782Z,6.70
2018-12-22T22:06:39.554Z,6.70
2018-12-22T22:09:07.230Z,6.70
2018-12-22T22:11:34.757Z,6.70
2018-12-22T22:14:02.225Z,6.70
2018-12-22T22:16:29.705Z,6.70
2018-12-22T22:18:57.356Z,6.70
2018-12-22T22:21:24.898Z,6.70
2018-12-22T22:23:52.389Z,6.70
2018-12-22T22:26:20.209Z,6.70
2018-12-22T22:28:47.781Z,6.80
2018-12-22T22:31:15.353Z,6.80
2018-12-22T22:33:43.115Z,6.80
2018-12-22T22:36:10.710Z,6.80
2018-12-22T22:38:38.222Z,6.80
2018-12-22T22:41:06.083Z,6.80
2018-12-22T22:43:33.618Z,6.80
2018-12-22T22:46:01.087Z,6.80
2018-12-22T22:48:28.643Z,6.80
2018-12-22T22:50:56.155Z,6.80
2018-12-22T22:53:30.609Z,6.80
2018-12-22T22:55:58.193Z,6.90
2018-12-22T22:58:25.641Z,6.80
2018-12-22T23:00:53.307Z,6.80
2018-12-22T23:03:21.756Z,6.80
2018-12-22T23:05:49.272Z,6.80
2018-12-22T23:08:16.743Z,6.80
2018-12-22T23:10:44.265Z,6.90
2018-12-22T23:13:11.902Z,6.90
2018-12-22T23:15:49.205Z,6.90
2018-12-22T23:18:16.876Z,6.90
2018-12-22T23:20:44.504Z,6.90
2018-12-22T23:23:12.050Z,6.90
2018-12-22T23:25:39.665Z,7.00
2018-12-22T23:28:07.519Z,7.00
2018-12-22T23:30:35.100Z,7.00
2018-12-22T23:33:03.137Z,7.00
2018-12-22T23:35:31.862Z,7.00
2018-12-22T23:37:59.430Z,7.00
2018-12-22T23:40:27.006Z,7.10
2018-12-22T23:42:54.500Z,7.10
2018-12-22T23:45:22.014Z,7.10
2018-12-22T23:47:49.593Z,7.20
2018-12-22T23:50:17.262Z,7.20
2018-12-22T23:52:44.918Z,7.20
2018-12-22T23:55:12.415Z,7.20
2018-12-22T23:57:40.014Z,7.20
